Time;durP1;ratioP1;P1;durP2;ratioP2;P2;SDS_P1;SDS_P2;PMS_P1;PMS_P2;Temp;Humidity;BMP_temperature;BMP_pressure;BME280_temperature;BME280_humidity;BME280_pressure;Samples;Min_cycle;Max_cycle;Signal;HPM_P1;HPM_P2
2021/12/12 00:00:32;;;;;;;15.85;4.85;;;6.30;99.90;;;;;;4991645;28;20029;-79
2021/12/12 00:03:05;;;;;;;21.45;5.88;;;6.30;99.90;;;;;;4994515;28;20026;-76
2021/12/12 00:05:45;;;;;;;16.00;4.85;;;6.20;99.90;;;;;;4972466;28;20043;-79
2021/12/12 00:08:12;;;;;;;22.67;5.53;;;6.30;99.90;;;;;;4997765;28;20110;-81
2021/12/12 00:10:41;;;;;;;22.55;5.93;;;6.30;99.90;;;;;;4996490;28;20040;-79
2021/12/12 00:13:08;;;;;;;;;;;6.30;99.90;;;;;;4988714;28;20029;-80
2021/12/12 00:15:34;;;;;;;22.02;5.03;;;6.20;99.90;;;;;;4995408;28;20409;-77
2021/12/12 00:18:00;;;;;;;11.50;5.35;;;6.30;99.90;;;;;;4997547;28;20030;-76
2021/12/12 00:20:27;;;;;;;17.20;5.57;;;6.20;99.90;;;;;;5018793;28;20029;-79
2021/12/12 00:22:58;;;;;;;17.60;4.72;;;6.30;99.90;;;;;;5002802;28;20042;-76
2021/12/12 00:25:26;;;;;;;14.45;5.28;;;6.30;99.90;;;;;;5003065;28;20003;-79
2021/12/12 00:27:51;;;;;;;15.13;6.13;;;6.20;99.90;;;;;;5018715;28;20018;-78
2021/12/12 00:30:17;;;;;;;13.75;5.70;;;6.20;99.90;;;;;;5018960;28;20014;-81
2021/12/12 00:32:43;;;;;;;21.85;5.50;;;6.20;99.90;;;;;;5017711;28;20029;-78
2021/12/12 00:35:13;;;;;;;15.73;5.55;;;6.20;99.90;;;;;;4998813;28;20022;-76
2021/12/12 00:37:39;;;;;;;18.67;6.38;;;6.30;99.90;;;;;;5015127;28;20026;-77
2021/12/12 00:40:17;;;;;;;15.35;4.85;;;6.30;99.90;;;;;;4999134;28;20026;-77
2021/12/12 00:42:43;;;;;;;16.85;5.63;;;6.20;99.90;;;;;;5014562;28;20043;-76
2021/12/12 00:45:13;;;;;;;10.68;5.00;;;6.20;99.90;;;;;;4992511;28;20200;-78
2021/12/12 00:47:41;;;;;;;27.92;5.03;;;6.20;99.90;;;;;;4980913;28;20018;-79
2021/12/12 00:50:13;;;;;;;18.63;5.40;;;6.20;99.90;;;;;;4996211;28;20090;-79
2021/12/12 00:52:41;;;;;;;23.13;5.40;;;6.20;99.90;;;;;;4974725;28;20035;-79
2021/12/12 00:55:07;;;;;;;17.45;5.88;;;6.20;99.90;;;;;;4987424;28;20471;-79
2021/12/12 00:57:34;;;;;;;13.20;5.10;;;6.20;99.90;;;;;;4968617;28;20181;-79
2021/12/12 00:59:59;;;;;;;24.77;6.50;;;6.20;99.90;;;;;;4992506;28;20049;-78
2021/12/12 01:02:27;;;;;;;22.40;5.60;;;6.20;99.90;;;;;;4992917;28;20038;-81
2021/12/12 01:04:55;;;;;;;;;;;6.20;99.90;;;;;;4990107;28;20074;-80
2021/12/12 01:07:28;;;;;;;20.65;4.88;;;6.20;99.90;;;;;;4989719;28;19993;-81
2021/12/12 01:09:57;;;;;;;16.88;5.03;;;6.20;99.90;;;;;;4984305;28;20033;-81
2021/12/12 01:12:28;;;;;;;14.10;4.80;;;6.20;99.90;;;;;;4986714;28;20033;-80
2021/12/12 01:15:01;;;;;;;26.40;6.68;;;6.20;99.90;;;;;;4993934;28;20038;-80
2021/12/12 01:17:40;;;;;;;20.73;5.10;;;6.20;99.90;;;;;;4993393;28;20030;-78
2021/12/12 01:20:28;;;;;;;18.10;5.45;;;6.10;99.90;;;;;;4978360;28;20034;-80
2021/12/12 01:22:56;;;;;;;14.07;5.43;;;6.20;99.90;;;;;;4975766;28;20411;-79
2021/12/12 01:25:27;;;;;;;19.88;5.88;;;6.20;99.90;;;;;;4976393;28;20514;-78
2021/12/12 01:27:54;;;;;;;24.10;6.50;;;6.10;99.90;;;;;;4991002;28;20097;-80
2021/12/12 01:30:21;;;;;;;14.63;4.20;;;6.10;99.90;;;;;;4992010;28;20502;-80
2021/12/12 01:32:48;;;;;;;16.50;6.35;;;6.20;99.90;;;;;;4974841;28;20034;-80
2021/12/12 01:35:17;;;;;;;15.45;5.80;;;6.20;99.90;;;;;;4995917;28;20037;-81
2021/12/12 01:38:52;;;;;;;18.00;5.43;;;6.20;99.90;;;;;;4975078;28;20331;-81
2021/12/12 01:40:40;;;;;;;18.25;5.28;;;6.20;99.90;;;;;;4992017;28;20403;-80
2021/12/12 01:43:22;;;;;;;20.85;5.13;;;6.20;99.90;;;;;;4971496;28;20030;-80
2021/12/12 01:46:14;;;;;;;19.80;5.38;;;6.20;99.90;;;;;;4983969;28;20033;-79
2021/12/12 01:48:52;;;;;;;20.42;5.90;;;6.20;99.90;;;;;;4990992;28;20034;-80
2021/12/12 01:51:18;;;;;;;;;;;6.20;99.90;;;;;;4980260;28;20054;-79
2021/12/12 01:53:48;;;;;;;15.57;4.80;;;6.20;99.90;;;;;;4999008;28;19917;-79
2021/12/12 01:56:52;;;;;;;14.10;5.13;;;6.20;99.90;;;;;;4977539;28;20026;-80
2021/12/12 01:59:22;;;;;;;10.25;4.70;;;6.20;99.90;;;;;;4978509;28;20509;-78
2021/12/12 02:01:52;;;;;;;18.33;4.68;;;6.20;99.90;;;;;;5004104;28;20030;-80
2021/12/12 02:04:31;;;;;;;22.08;6.45;;;6.20;99.90;;;;;;4998081;28;20478;-80
2021/12/12 02:06:58;;;;;;;21.75;4.85;;;6.20;99.90;;;;;;4978345;28;20034;-80
2021/12/12 02:09:25;;;;;;;13.95;5.07;;;6.20;99.90;;;;;;4996448;28;20414;-80
2021/12/12 02:11:55;;;;;;;8.73;4.40;;;6.10;99.90;;;;;;4995861;28;20034;-76
2021/12/12 02:14:21;;;;;;;19.45;4.57;;;6.20;99.90;;;;;;4985975;28;20034;-78
2021/12/12 02:16:56;;;;;;;11.82;4.63;;;6.20;99.90;;;;;;4982845;28;20405;-79
2021/12/12 02:19:30;;;;;;;16.15;5.35;;;6.20;99.90;;;;;;4984594;28;20030;-79
2021/12/12 02:22:26;;;;;;;17.38;5.15;;;6.20;99.90;;;;;;4978792;28;20108;-80
2021/12/12 02:35:55;;;;;;;9.02;5.40;;;6.20;99.90;;;;;;4979639;28;20089;-79
2021/12/12 02:38:28;;;;;;;13.40;4.97;;;6.20;99.90;;;;;;4994771;28;20026;-79
2021/12/12 02:41:02;;;;;;;17.58;5.75;;;6.20;99.90;;;;;;4978243;28;20066;-82
2021/12/12 02:43:33;;;;;;;17.35;6.55;;;6.30;99.90;;;;;;4995064;28;20093;-79
2021/12/12 02:45:59;;;;;;;19.08;6.05;;;6.30;99.90;;;;;;4978300;28;20030;-79
2021/12/12 02:48:31;;;;;;;9.52;4.25;;;6.20;99.90;;;;;;4996232;28;20026;-80
2021/12/12 02:51:04;;;;;;;9.77;5.38;;;6.20;99.90;;;;;;4995889;28;20041;-80
2021/12/12 02:53:36;;;;;;;23.10;5.78;;;6.30;99.90;;;;;;4994838;28;20045;-79
2021/12/12 02:56:16;;;;;;;12.25;5.72;;;6.30;99.90;;;;;;4994655;28;20541;-80
2021/12/12 02:58:43;;;;;;;15.30;5.90;;;6.30;99.90;;;;;;4977803;28;20092;-80
2021/12/12 03:01:33;;;;;;;20.52;5.85;;;6.30;99.90;;;;;;4978048;28;20527;-81
2021/12/12 03:03:59;;;;;;;14.07;6.15;;;6.30;99.90;;;;;;4977334;28;20053;-79
2021/12/12 03:06:29;;;;;;;14.05;5.90;;;6.40;99.90;;;;;;4995742;28;20030;-79
2021/12/12 03:09:09;;;;;;;18.98;6.07;;;6.30;99.90;;;;;;4995423;28;20018;-79
2021/12/12 03:11:35;;;;;;;14.90;6.22;;;6.30;99.90;;;;;;4995525;28;20533;-78
2021/12/12 03:14:01;;;;;;;19.60;6.85;;;6.30;99.90;;;;;;4976846;28;20128;-77
2021/12/12 03:16:28;;;;;;;19.85;6.90;;;6.30;99.90;;;;;;4977567;28;20038;-79
2021/12/12 03:18:55;;;;;;;15.40;6.33;;;6.30;99.90;;;;;;4996048;28;20034;-78
2021/12/12 03:21:30;;;;;;;14.52;7.40;;;6.30;99.90;;;;;;4994856;28;20376;-79
2021/12/12 03:24:03;;;;;;;18.88;6.88;;;6.30;99.90;;;;;;4995414;28;20026;-78
2021/12/12 03:26:29;;;;;;;22.08;7.13;;;6.40;99.90;;;;;;4976945;28;20085;-78
2021/12/12 03:28:57;;;;;;;16.83;8.15;;;6.40;99.90;;;;;;4992427;28;20081;-79
2021/12/12 03:31:35;;;;;;;21.52;7.95;;;6.30;99.90;;;;;;4994878;28;20026;-79
2021/12/12 03:34:04;;;;;;;;;;;6.40;99.90;;;;;;4976521;28;20149;-79
2021/12/12 03:36:29;;;;;;;16.83;6.47;;;6.40;99.90;;;;;;4976938;28;19960;-79
2021/12/12 03:39:08;;;;;;;17.88;7.70;;;6.40;99.90;;;;;;4994717;28;20030;-79
2021/12/12 03:41:36;;;;;;;15.10;6.32;;;6.40;99.90;;;;;;4994706;28;20034;-79
2021/12/12 03:44:06;;;;;;;19.65;7.10;;;6.50;99.90;;;;;;4977676;28;20081;-79
2021/12/12 03:46:32;;;;;;;16.48;7.60;;;6.50;99.90;;;;;;4977093;28;20117;-78
2021/12/12 03:48:58;;;;;;;15.63;7.45;;;6.50;99.90;;;;;;4994347;28;20030;-79
2021/12/12 03:51:27;;;;;;;20.50;7.32;;;6.50;99.90;;;;;;4994833;28;20034;-79
2021/12/12 03:53:54;;;;;;;19.27;7.13;;;6.60;99.90;;;;;;4994431;28;20076;-79
2021/12/12 03:56:20;;;;;;;15.80;6.87;;;6.60;99.90;;;;;;4993909;28;20046;-80
2021/12/12 03:58:47;;;;;;;26.23;8.77;;;6.50;99.90;;;;;;4976140;28;20462;-78
2021/12/12 04:01:25;;;;;;;18.05;8.77;;;6.60;99.90;;;;;;4994313;28;20579;-79
2021/12/12 04:03:54;;;;;;;17.98;8.60;;;6.60;99.90;;;;;;4977969;28;20475;-79
2021/12/12 04:06:25;;;;;;;18.45;8.77;;;6.70;99.90;;;;;;4976695;28;20109;-78
2021/12/12 04:08:51;;;;;;;13.88;8.27;;;6.70;99.90;;;;;;4975953;28;20117;-79
2021/12/12 04:11:36;;;;;;;22.67;9.57;;;6.60;99.90;;;;;;4993984;28;20030;-79
2021/12/12 04:14:05;;;;;;;17.33;9.65;;;6.70;99.90;;;;;;4993977;28;20097;-80
2021/12/12 04:16:33;;;;;;;16.63;8.82;;;6.70;99.90;;;;;;4993286;28;20037;-79
2021/12/12 04:19:00;;;;;;;18.05;9.60;;;6.80;99.90;;;;;;4993349;28;20030;-80
2021/12/12 04:21:27;;;;;;;24.45;9.70;;;6.80;99.90;;;;;;4993893;28;20045;-79
2021/12/12 04:23:53;;;;;;;22.45;9.32;;;6.80;99.90;;;;;;4994074;28;20034;-79
2021/12/12 04:26:23;;;;;;;16.45;10.15;;;6.80;99.90;;;;;;4994214;28;20471;-79
2021/12/12 04:29:07;;;;;;;24.42;10.23;;;6.80;99.90;;;;;;4993908;28;20062;-80
2021/12/12 04:31:34;;;;;;;16.42;10.07;;;6.90;99.90;;;;;;4957682;28;20066;-79
2021/12/12 04:34:01;;;;;;;20.20;10.20;;;6.90;99.90;;;;;;4983166;28;20041;-78
2021/12/12 04:36:32;;;;;;;22.60;10.60;;;6.90;99.90;;;;;;4993067;28;20343;-79
2021/12/12 04:39:01;;;;;;;27.23;11.38;;;6.90;99.90;;;;;;4993202;28;20530;-79
2021/12/12 04:41:26;;;;;;;25.30;10.93;;;7.00;99.90;;;;;;4982783;28;20042;-78
2021/12/12 04:43:52;;;;;;;26.30;10.88;;;6.90;99.90;;;;;;4993954;28;20022;-79
2021/12/12 04:46:25;;;;;;;23.58;11.15;;;7.00;99.90;;;;;;4976009;28;20454;-79
2021/12/12 04:51:42;;;;;;;;;;;7.00;99.90;;;;;;4994543;28;20092;-78
2021/12/12 04:54:27;;;;;;;22.60;11.05;;;7.00;99.90;;;;;;4993479;28;19913;-78
2021/12/12 04:57:15;;;;;;;22.15;11.40;;;7.00;99.90;;;;;;4993328;28;20054;-79
2021/12/12 04:59:49;;;;;;;24.17;11.98;;;7.10;99.90;;;;;;4993032;28;20316;-79
2021/12/12 05:02:14;;;;;;;24.38;12.15;;;7.10;99.90;;;;;;4993233;28;20046;-78
2021/12/12 05:04:58;;;;;;;29.17;13.00;;;7.20;99.90;;;;;;4992749;28;20046;-78
2021/12/12 05:07:38;;;;;;;28.20;12.63;;;7.20;99.90;;;;;;4986783;28;20090;-79
2021/12/12 05:10:08;;;;;;;26.67;12.57;;;7.20;99.90;;;;;;4992920;28;20038;-78
2021/12/12 05:12:46;;;;;;;28.42;13.23;;;7.30;99.90;;;;;;4993902;28;20027;-78
2021/12/12 05:15:21;;;;;;;28.30;13.45;;;7.30;99.90;;;;;;4975605;28;20038;-79
2021/12/12 05:17:56;;;;;;;29.48;13.00;;;7.30;99.90;;;;;;4993390;28;20034;-79
2021/12/12 05:20:45;;;;;;;22.50;12.35;;;7.30;99.90;;;;;;4987148;28;20030;-79
2021/12/12 05:23:18;;;;;;;32.25;13.27;;;7.30;99.90;;;;;;4979881;28;20047;-78
2021/12/12 05:26:09;;;;;;;33.38;15.57;;;7.30;99.90;;;;;;4979619;28;20093;-79
2021/12/12 05:28:48;;;;;;;25.08;14.32;;;7.30;99.90;;;;;;4996937;28;20033;-79
2021/12/12 05:31:16;;;;;;;33.63;13.55;;;7.30;99.90;;;;;;4993970;28;20056;-79
2021/12/12 05:33:41;;;;;;;;;;;7.40;99.90;;;;;;4997450;28;20037;-80
2021/12/12 05:36:09;;;;;;;28.23;14.15;;;7.40;99.90;;;;;;4979316;28;19914;-80
2021/12/12 05:38:35;;;;;;;33.25;14.82;;;7.40;99.90;;;;;;4996877;28;20032;-79
2021/12/12 05:41:01;;;;;;;37.13;16.55;;;7.40;99.90;;;;;;4995324;28;20040;-80
2021/12/12 05:43:29;;;;;;;28.88;14.80;;;7.40;99.90;;;;;;4980871;28;20058;-78
2021/12/12 05:45:55;;;;;;;34.37;16.13;;;7.40;99.90;;;;;;4996945;28;20102;-78
2021/12/12 05:48:22;;;;;;;33.08;15.90;;;7.40;99.90;;;;;;4996198;28;20277;-77
2021/12/12 05:50:50;;;;;;;31.33;14.35;;;7.50;99.90;;;;;;4978827;28;20050;-78
2021/12/12 05:53:16;;;;;;;31.77;15.00;;;7.50;99.90;;;;;;4979662;28;20026;-79
2021/12/12 05:55:43;;;;;;;38.30;15.55;;;7.50;99.90;;;;;;4997178;28;20030;-78
2021/12/12 05:58:12;;;;;;;42.20;15.60;;;7.60;99.90;;;;;;4978614;28;20092;-77
2021/12/12 06:00:45;;;;;;;35.50;15.77;;;7.50;99.90;;;;;;4978742;28;20144;-78
2021/12/12 06:03:13;;;;;;;29.60;16.02;;;7.60;99.90;;;;;;4979086;28;20122;-78
2021/12/12 06:05:39;;;;;;;40.10;15.98;;;7.60;99.90;;;;;;4996290;28;20050;-78
2021/12/12 06:08:06;;;;;;;35.60;15.60;;;7.60;99.90;;;;;;4995895;28;20033;-78
2021/12/12 06:10:35;;;;;;;29.27;14.33;;;7.60;99.90;;;;;;4996587;28;20109;-80
2021/12/12 06:13:04;;;;;;;35.30;14.85;;;7.60;99.90;;;;;;4996048;28;20284;-79
2021/12/12 06:15:30;;;;;;;38.95;16.00;;;7.60;99.90;;;;;;4996119;28;20034;-79
2021/12/12 06:17:58;;;;;;;38.67;16.38;;;7.70;99.90;;;;;;4979181;28;20023;-79
2021/12/12 06:20:25;;;;;;;42.88;15.93;;;7.70;99.90;;;;;;4995960;28;20038;-79
2021/12/12 06:22:53;;;;;;;37.90;16.42;;;7.70;99.90;;;;;;4996714;28;20031;-79
2021/12/12 06:25:19;;;;;;;39.15;16.88;;;7.70;99.90;;;;;;4978099;28;20459;-80
2021/12/12 06:27:44;;;;;;;39.10;15.68;;;7.70;99.90;;;;;;4978153;28;20121;-80
2021/12/12 06:30:15;;;;;;;43.38;17.20;;;7.80;99.90;;;;;;4995734;28;20368;-78
2021/12/12 06:32:43;;;;;;;35.33;14.65;;;7.80;99.90;;;;;;4976834;28;20038;-79
2021/12/12 06:35:09;;;;;;;;;;;7.80;99.90;;;;;;4996416;28;20080;-79
2021/12/12 06:37:35;;;;;;;36.33;14.02;;;7.80;99.90;;;;;;4995856;28;20359;-79
2021/12/12 06:40:04;;;;;;;40.15;15.75;;;7.90;99.90;;;;;;4978000;28;20030;-78
2021/12/12 06:42:32;;;;;;;42.80;15.50;;;7.90;99.90;;;;;;4977755;28;20041;-79
2021/12/12 06:44:58;;;;;;;38.47;15.40;;;8.00;99.90;;;;;;4995518;28;20073;-78
2021/12/12 06:47:24;;;;;;;43.08;15.52;;;8.00;99.90;;;;;;4978479;28;20065;-79
2021/12/12 06:49:49;;;;;;;42.15;14.57;;;8.00;99.90;;;;;;4994846;28;20026;-78
2021/12/12 06:52:35;;;;;;;39.33;16.13;;;8.10;99.90;;;;;;4995341;28;20511;-79
2021/12/12 06:55:02;;;;;;;58.58;16.25;;;8.10;99.90;;;;;;4965993;28;20045;-79
2021/12/12 06:57:28;;;;;;;47.25;16.83;;;8.10;99.90;;;;;;4990783;28;20495;-79
2021/12/12 06:59:55;;;;;;;48.60;17.45;;;8.10;99.90;;;;;;4995296;28;20027;-79
2021/12/12 07:02:23;;;;;;;58.40;18.63;;;8.20;99.90;;;;;;4994640;28;20042;-78
2021/12/12 07:04:49;;;;;;;50.00;17.23;;;8.20;99.90;;;;;;4994491;28;20491;-79
2021/12/12 07:07:16;;;;;;;48.97;17.40;;;8.30;99.90;;;;;;4994447;28;20033;-79
2021/12/12 07:09:45;;;;;;;55.13;17.65;;;8.30;99.90;;;;;;4984361;28;20048;-80
2021/12/12 07:12:13;;;;;;;50.63;16.27;;;8.30;99.90;;;;;;4994874;28;20387;-78
2021/12/12 07:14:39;;;;;;;47.42;16.80;;;8.30;99.90;;;;;;4993804;28;20026;-79
2021/12/12 07:17:07;;;;;;;56.65;17.15;;;8.30;99.90;;;;;;4995423;28;20046;-80
2021/12/12 07:19:36;;;;;;;59.28;17.85;;;8.30;99.90;;;;;;5004858;28;20105;-80
2021/12/12 07:22:02;;;;;;;48.33;16.60;;;8.30;99.90;;;;;;4996159;28;20022;-79
2021/12/12 07:24:31;;;;;;;49.72;17.45;;;8.30;99.90;;;;;;4995339;28;20114;-79
2021/12/12 07:26:58;;;;;;;54.00;17.25;;;8.40;99.90;;;;;;5007668;28;20041;-79
2021/12/12 07:29:24;;;;;;;44.60;17.88;;;8.40;99.90;;;;;;4989796;28;20070;-79
2021/12/12 07:31:51;;;;;;;59.13;17.25;;;8.40;99.90;;;;;;5002023;28;20467;-79
2021/12/12 07:34:17;;;;;;;48.05;17.08;;;8.40;99.90;;;;;;5011258;28;20026;-78
2021/12/12 07:36:57;;;;;;;52.30;18.30;;;8.40;99.90;;;;;;4994099;28;20062;-78
2021/12/12 07:39:24;;;;;;;55.80;18.10;;;8.40;99.90;;;;;;4994582;28;20038;-79
2021/12/12 07:41:52;;;;;;;48.63;17.58;;;8.50;99.90;;;;;;4994436;28;20031;-78
2021/12/12 07:44:21;;;;;;;56.65;16.13;;;8.50;99.90;;;;;;4994096;28;20113;-78
2021/12/12 07:46:47;;;;;;;54.63;16.52;;;8.50;99.90;;;;;;4994168;28;20030;-78
2021/12/12 07:49:17;;;;;;;54.95;16.60;;;8.50;99.90;;;;;;4985809;28;20077;-79
2021/12/12 07:51:44;;;;;;;61.33;18.17;;;8.50;99.90;;;;;;4984002;28;20026;-78
2021/12/12 07:54:11;;;;;;;54.60;16.92;;;8.50;99.90;;;;;;4993030;28;20031;-78
2021/12/12 07:56:40;;;;;;;58.47;16.20;;;8.50;99.90;;;;;;4994425;28;20068;-79
2021/12/12 07:59:07;;;;;;;62.05;18.58;;;8.50;99.90;;;;;;4991141;28;20088;-79
2021/12/12 08:01:34;;;;;;;60.17;17.20;;;8.50;99.90;;;;;;4976474;28;20061;-79
2021/12/12 08:04:00;;;;;;;62.42;18.52;;;8.60;99.90;;;;;;4994708;28;20034;-79
2021/12/12 08:06:26;;;;;;;58.30;19.67;;;8.50;99.90;;;;;;4994042;28;20488;-80
2021/12/12 08:08:53;;;;;;;57.22;17.48;;;8.50;99.90;;;;;;4993908;28;20046;-81
2021/12/12 08:11:23;;;;;;;57.50;17.75;;;8.60;99.90;;;;;;4993773;28;20027;-78
2021/12/12 08:13:50;;;;;;;54.65;17.98;;;8.60;99.90;;;;;;4994056;28;20553;-77
2021/12/12 08:16:18;;;;;;;63.53;19.80;;;8.60;99.90;;;;;;4976322;28;20088;-79
2021/12/12 08:18:44;;;;;;;56.00;18.58;;;8.60;99.90;;;;;;4993830;28;20646;-79
2021/12/12 08:21:11;;;;;;;56.15;17.55;;;8.60;99.90;;;;;;4976341;28;20372;-78
2021/12/12 08:23:37;;;;;;;66.95;15.82;;;8.70;99.90;;;;;;4975920;28;20026;-79
2021/12/12 08:26:05;;;;;;;59.60;16.20;;;8.80;99.90;;;;;;4993700;28;20113;-78
2021/12/12 08:28:31;;;;;;;67.15;17.40;;;8.80;99.90;;;;;;4991919;28;20113;-79
2021/12/12 08:30:57;;;;;;;59.65;16.92;;;8.80;99.90;;;;;;4993660;28;20069;-78
2021/12/12 08:33:24;;;;;;;65.82;18.25;;;8.80;99.90;;;;;;4993652;28;20391;-79
2021/12/12 08:35:50;;;;;;;60.45;17.60;;;8.80;99.90;;;;;;4993402;28;20097;-80
2021/12/12 08:38:17;;;;;;;47.03;17.60;;;8.80;99.90;;;;;;4993091;28;20471;-79
2021/12/12 08:40:47;;;;;;;54.55;16.38;;;8.80;99.90;;;;;;4993724;28;20067;-79
2021/12/12 08:43:15;;;;;;;69.85;16.30;;;8.90;99.90;;;;;;4993743;28;20025;-78
2021/12/12 08:45:50;;;;;;;58.25;17.52;;;8.90;99.90;;;;;;4992589;28;20498;-79
2021/12/12 08:48:19;;;;;;;62.50;16.35;;;8.90;99.90;;;;;;4991454;28;20436;-78
2021/12/12 08:50:49;;;;;;;52.92;16.45;;;8.90;99.90;;;;;;4993848;28;20457;-78
2021/12/12 08:53:17;;;;;;;45.65;15.77;;;9.00;99.90;;;;;;4993755;28;20035;-78
2021/12/12 08:55:45;;;;;;;56.10;16.60;;;9.00;99.90;;;;;;4959846;28;20018;-77
2021/12/12 08:58:15;;;;;;;59.70;15.60;;;9.00;99.90;;;;;;4992828;28;20037;-79
2021/12/12 09:00:57;;;;;;;46.47;15.45;;;9.00;99.90;;;;;;4993172;28;20026;-77
2021/12/12 09:03:57;;;;;;;49.40;13.85;;;9.10;99.90;;;;;;4980116;28;20026;-78
2021/12/12 09:06:30;;;;;;;40.17;15.27;;;9.20;99.90;;;;;;4986744;28;20049;-78
2021/12/12 09:08:58;;;;;;;42.47;15.27;;;9.20;99.90;;;;;;4976092;28;20042;-79
2021/12/12 09:11:54;;;;;;;62.35;15.60;;;9.20;99.90;;;;;;4975454;28;20088;-78
2021/12/12 09:14:21;;;;;;;60.58;17.95;;;9.10;99.90;;;;;;4993110;28;20093;-79
2021/12/12 09:17:02;;;;;;;57.78;15.95;;;9.10;99.90;;;;;;4993078;28;20113;-78
2021/12/12 09:19:34;;;;;;;65.97;17.30;;;9.10;99.90;;;;;;4993177;28;20538;-80
2021/12/12 09:22:26;;;;;;;58.05;15.60;;;9.20;99.90;;;;;;4975377;28;20038;-79
2021/12/12 09:25:37;;;;;;;50.42;15.25;;;9.20;99.90;;;;;;4981138;28;20030;-80
2021/12/12 09:28:30;;;;;;;52.42;16.10;;;9.30;99.90;;;;;;4924942;29;20417;-79
2021/12/12 09:31:01;;;;;;;56.33;14.68;;;9.20;99.90;;;;;;4993157;28;20042;-79
2021/12/12 09:33:36;;;;;;;44.20;14.98;;;9.30;99.90;;;;;;4986665;28;20038;-79
2021/12/12 09:36:09;;;;;;;49.75;15.80;;;9.30;99.90;;;;;;4993065;28;20030;-78
2021/12/12 09:38:59;;;;;;;47.63;15.50;;;9.30;99.90;;;;;;4993322;28;20045;-78
2021/12/12 09:41:42;;;;;;;43.92;14.70;;;9.40;99.90;;;;;;4975017;28;20140;-79
2021/12/12 09:44:40;;;;;;;39.03;14.07;;;9.40;99.90;;;;;;4991975;28;20031;-79
2021/12/12 09:47:59;;;;;;;37.83;14.40;;;9.50;99.90;;;;;;4963841;28;20026;-79
2021/12/12 09:53:27;;;;;;;39.40;13.70;;;9.50;99.90;;;;;;4992944;28;20037;-79
2021/12/12 09:56:27;;;;;;;33.60;12.88;;;9.50;99.90;;;;;;4992511;28;20037;-81
2021/12/12 09:59:05;;;;;;;38.03;14.23;;;9.50;99.90;;;;;;4979376;28;20043;-80
2021/12/12 10:01:33;;;;;;;;;;;9.50;99.90;;;;;;4993803;28;20034;-81
2021/12/12 10:04:17;;;;;;;31.88;12.82;;;9.50;99.90;;;;;;4992797;28;19909;-80
2021/12/12 10:07:02;;;;;;;34.30;13.07;;;9.50;99.90;;;;;;4990148;28;20038;-78
2021/12/12 10:09:56;;;;;;;32.28;13.90;;;9.50;99.90;;;;;;4981982;28;20042;-78
2021/12/12 10:12:26;;;;;;;34.50;12.80;;;9.50;99.90;;;;;;4996040;28;20030;-78
2021/12/12 10:14:57;;;;;;;32.92;12.77;;;9.60;99.90;;;;;;4979475;28;20018;-78
2021/12/12 10:17:41;;;;;;;28.80;13.15;;;9.60;99.90;;;;;;4996270;28;20451;-79
2021/12/12 10:20:35;;;;;;;49.20;12.50;;;9.60;99.90;;;;;;4995880;28;20160;-78
2021/12/12 10:23:07;;;;;;;33.72;11.95;;;9.60;99.90;;;;;;4986877;28;20376;-79
2021/12/12 10:25:41;;;;;;;29.15;11.73;;;9.60;99.90;;;;;;4996854;28;20023;-80
2021/12/12 10:28:22;;;;;;;27.02;10.85;;;9.60;99.90;;;;;;4995761;28;20026;-79
2021/12/12 10:31:21;;;;;;;29.30;11.52;;;9.60;99.90;;;;;;4971983;28;20380;-79
2021/12/12 10:33:49;;;;;;;31.08;10.48;;;9.60;99.90;;;;;;4991320;28;20125;-78
2021/12/12 10:36:19;;;;;;;24.85;10.90;;;9.70;99.90;;;;;;4995909;28;20021;-78
2021/12/12 10:38:59;;;;;;;25.75;10.35;;;9.70;99.90;;;;;;4996032;28;20077;-78
2021/12/12 10:41:31;;;;;;;24.48;10.02;;;9.70;99.90;;;;;;4995787;28;20022;-77
2021/12/12 10:44:09;;;;;;;24.33;9.77;;;9.70;99.90;;;;;;4995721;28;20026;-78
2021/12/12 10:46:55;;;;;;;26.90;10.30;;;9.70;99.90;;;;;;4991647;28;20034;-77
2021/12/12 10:49:48;;;;;;;26.67;10.10;;;9.70;99.90;;;;;;4980448;28;20022;-78
2021/12/12 10:52:39;;;;;;;27.08;10.48;;;9.70;99.90;;;;;;4995475;28;20026;-78
2021/12/12 10:55:20;;;;;;;22.80;9.63;;;9.70;99.90;;;;;;4995638;28;20129;-77
2021/12/12 10:57:59;;;;;;;22.45;9.23;;;9.80;99.90;;;;;;4985199;28;20491;-77
2021/12/12 11:00:30;;;;;;;22.52;10.13;;;9.80;99.90;;;;;;4984542;28;20034;-79
2021/12/12 11:03:02;;;;;;;21.00;9.98;;;9.90;99.90;;;;;;4994515;28;20026;-78
2021/12/12 11:05:40;;;;;;;26.20;10.82;;;10.00;99.90;;;;;;4972376;28;20514;-78
2021/12/12 11:08:39;;;;;;;20.50;9.77;;;10.00;99.90;;;;;;4974760;28;20369;-79
2021/12/12 11:11:45;;;;;;;24.10;9.88;;;9.90;99.90;;;;;;4975943;28;20085;-79
2021/12/12 11:14:45;;;;;;;20.23;9.73;;;9.90;99.90;;;;;;4974085;28;20042;-79
2021/12/12 11:17:17;;;;;;;19.13;9.77;;;10.00;99.90;;;;;;4935901;28;20039;-78
2021/12/12 11:19:53;;;;;;;27.58;10.32;;;10.00;99.90;;;;;;4956663;29;20106;-79
2021/12/12 11:22:29;;;;;;;24.23;9.82;;;10.00;99.90;;;;;;4988009;28;20443;-78
2021/12/12 11:25:22;;;;;;;20.25;9.30;;;10.10;99.90;;;;;;4969286;28;20125;-79
2021/12/12 11:27:54;;;;;;;20.40;9.23;;;10.10;99.90;;;;;;4967114;28;20511;-79
2021/12/12 11:30:26;;;;;;;19.17;8.80;;;10.10;99.90;;;;;;4977859;28;20023;-78
2021/12/12 11:32:55;;;;;;;25.10;8.98;;;10.10;99.90;;;;;;4986021;28;20034;-79
2021/12/12 11:35:24;;;;;;;16.95;8.15;;;10.10;99.90;;;;;;4980247;28;20030;-78
2021/12/12 11:38:02;;;;;;;17.92;7.60;;;10.20;99.90;;;;;;4974166;28;20046;-78
2021/12/12 11:40:42;;;;;;;15.15;7.85;;;10.20;99.90;;;;;;4981235;28;20042;-80
2021/12/12 11:43:24;;;;;;;18.60;7.57;;;10.20;99.90;;;;;;4973166;28;20047;-79
2021/12/12 11:45:57;;;;;;;17.65;8.43;;;10.20;99.90;;;;;;4972656;28;20057;-79
2021/12/12 11:48:51;;;;;;;21.67;8.07;;;10.20;99.90;;;;;;4977098;28;20085;-77
2021/12/12 11:51:27;;;;;;;20.83;8.15;;;10.30;99.90;;;;;;4975477;28;20419;-78
2021/12/12 11:54:10;;;;;;;17.98;8.05;;;10.30;99.90;;;;;;4973027;28;20500;-80
2021/12/12 11:56:46;;;;;;;16.58;8.13;;;10.40;99.90;;;;;;4985320;28;20022;-78
2021/12/12 11:59:41;;;;;;;16.02;7.25;;;10.40;99.90;;;;;;4988763;28;20034;-79
2021/12/12 12:02:32;;;;;;;16.42;8.02;;;10.40;99.90;;;;;;4978164;28;20043;-78
2021/12/12 12:05:15;;;;;;;17.95;7.57;;;10.40;99.90;;;;;;5008486;28;20058;-77
2021/12/12 12:07:57;;;;;;;14.80;7.60;;;10.40;99.90;;;;;;5032741;28;20037;-78
2021/12/12 12:10:44;;;;;;;16.80;7.60;;;10.40;99.90;;;;;;5035409;28;20069;-79
2021/12/12 12:13:40;;;;;;;13.82;7.53;;;10.40;99.90;;;;;;5037578;28;20041;-77
2021/12/12 12:16:29;;;;;;;14.15;7.85;;;10.40;99.90;;;;;;5038820;28;20033;-77
2021/12/12 12:19:21;;;;;;;11.45;7.40;;;10.40;99.90;;;;;;5009699;28;20125;-76
2021/12/12 12:21:52;;;;;;;15.85;7.30;;;10.50;99.90;;;;;;5030328;28;20061;-77
2021/12/12 12:24:22;;;;;;;15.05;7.78;;;10.50;99.90;;;;;;5025012;28;20022;-78
2021/12/12 12:27:03;;;;;;;13.00;7.32;;;10.50;99.90;;;;;;5019707;28;20030;-77
2021/12/12 12:29:30;;;;;;;13.93;7.20;;;10.60;99.90;;;;;;5031309;28;20093;-78
2021/12/12 12:32:07;;;;;;;16.53;7.53;;;10.60;99.90;;;;;;5045521;28;20038;-78
2021/12/12 12:35:07;;;;;;;15.07;8.30;;;10.70;99.90;;;;;;5040758;28;20298;-77
2021/12/12 12:38:09;;;;;;;17.30;8.63;;;10.70;99.90;;;;;;5038797;28;20094;-77
2021/12/12 12:40:36;;;;;;;18.38;8.82;;;10.70;99.90;;;;;;5035280;28;20132;-76
2021/12/12 12:43:24;;;;;;;18.65;8.45;;;10.70;99.90;;;;;;5043584;28;20017;-77
2021/12/12 12:46:08;;;;;;;16.13;7.68;;;10.80;99.90;;;;;;5021044;28;20037;-77
2021/12/12 12:48:58;;;;;;;14.43;8.60;;;10.90;99.90;;;;;;5044160;28;20017;-77
2021/12/12 12:51:33;;;;;;;16.23;7.50;;;10.80;99.90;;;;;;5030863;28;20121;-78
2021/12/12 12:54:19;;;;;;;15.65;8.82;;;10.80;99.90;;;;;;5050731;28;20463;-76
2021/12/12 12:57:09;;;;;;;12.23;7.40;;;10.80;99.90;;;;;;5016539;28;20048;-78
2021/12/12 12:59:57;;;;;;;13.57;7.70;;;10.90;99.90;;;;;;5006136;28;20113;-79
2021/12/12 13:02:53;;;;;;;17.33;8.18;;;10.90;99.90;;;;;;5012661;28;20384;-79
2021/12/12 13:05:55;;;;;;;10.38;7.28;;;11.00;99.90;;;;;;5020746;28;20048;-79
2021/12/12 13:08:49;;;;;;;13.25;7.63;;;11.00;99.90;;;;;;5032927;28;20049;-79
2021/12/12 13:11:35;;;;;;;12.38;7.93;;;11.00;99.90;;;;;;5025187;28;20117;-79
2021/12/12 13:14:10;;;;;;;15.45;7.32;;;11.00;99.90;;;;;;4995748;28;20030;-79
2021/12/12 13:17:19;;;;;;;11.77;7.07;;;11.00;99.90;;;;;;5013425;28;20026;-79
2021/12/12 13:20:33;;;;;;;18.88;7.95;;;11.00;99.90;;;;;;4933189;29;20035;-78
2021/12/12 13:23:21;;;;;;;14.38;8.05;;;11.00;99.90;;;;;;4937739;28;20499;-79
2021/12/12 13:25:54;;;;;;;10.38;7.30;;;11.00;99.90;;;;;;4993448;28;20057;-78
2021/12/12 13:28:31;;;;;;;14.05;7.00;;;11.00;99.90;;;;;;4993704;28;20046;-79
2021/12/12 13:31:22;;;;;;;13.88;7.15;;;11.00;99.90;;;;;;5004331;28;20037;-79
2021/12/12 13:34:00;;;;;;;12.23;7.72;;;11.10;99.90;;;;;;5009205;28;20027;-79
2021/12/12 13:36:43;;;;;;;13.10;7.75;;;11.10;99.90;;;;;;5013441;28;20058;-79